Página principal
Imagens de satélite Previsões 10 diasClimaMeteorologia maritima Ciclones Descargas eléctricas AeroportosFAQ Notícias Sobre
Tempo : Europa África América do Norte América do Sul Ásia Austrália-Oceania Outros
Línguas Contacto

Cambridge, Inglaterra

latitude: 52-12N, longitude: 000-11E, altura: 15 m


METAR: EGSC 300650Z VRB02KT 9999 SCT040 15/14 Q1018
TAF: EGSC 291400Z 2915/2919 19009KT 9999 SCT045

Hora: 08:47 (07:47 UTC)

Observação actual do tempo

O boletim foi feito há 57 minutos, às 06:50 UTC
Vento 2 kt com direcção variável
Temperatura 15°C
Humidade 94%
Pressão 1018 hPa
Visibilidade 10 km ou mais
Nuvens dispersasa uma altura de 4000 ft

Mudar unidades

Previsão

O boletim foi feito há 17 horas e 47 minutos, às 14:00 UTC
Previsão válida de 29 às 15 UTC a 29 às 19 UTC
Vento 9 kt de sul
Visibilidade 10 km ou mais
Nuvens dispersasa uma altura de 4500 ft
As informações contidas neste sítio estão sujeitas a uma declaração de exoneração de responsabilidade
Tempo : Europa África América do Norte América do Sul Ásia Austrália-Oceania Outros
Imagens de satélite Previsões 10 diasClimaMeteorologia maritima Ciclones Descargas eléctricas AeroportosFAQ Línguas Contacto Notícias Sobre